sensor_id;sensor_type;location;lat;lon;timestamp;temperature;humidity
29403;DHT22;16382;59.942;30.472;2023-04-24T00:01:42;13.40;90.90
29403;DHT22;16382;59.942;30.472;2023-04-24T00:04:09;13.40;91.10
29403;DHT22;16382;59.942;30.472;2023-04-24T00:06:41;13.50;91.20
29403;DHT22;16382;59.942;30.472;2023-04-24T00:09:09;13.40;91.40
29403;DHT22;16382;59.942;30.472;2023-04-24T00:11:37;13.40;91.70
29403;DHT22;16382;59.942;30.472;2023-04-24T00:14:05;13.40;92.00
29403;DHT22;16382;59.942;30.472;2023-04-24T00:16:32;13.40;92.30
29403;DHT22;16382;59.942;30.472;2023-04-24T00:19:00;13.40;92.40
29403;DHT22;16382;59.942;30.472;2023-04-24T00:21:28;13.40;92.70
29403;DHT22;16382;59.942;30.472;2023-04-24T00:23:57;13.40;92.80
29403;DHT22;16382;59.942;30.472;2023-04-24T00:26:24;13.40;93.20
29403;DHT22;16382;59.942;30.472;2023-04-24T00:28:52;13.30;93.60
29403;DHT22;16382;59.942;30.472;2023-04-24T00:31:19;13.30;93.70
29403;DHT22;16382;59.942;30.472;2023-04-24T00:33:47;13.30;93.90
29403;DHT22;16382;59.942;30.472;2023-04-24T00:36:14;13.30;94.20
29403;DHT22;16382;59.942;30.472;2023-04-24T00:38:41;13.30;94.30
29403;DHT22;16382;59.942;30.472;2023-04-24T00:41:10;13.30;94.60
29403;DHT22;16382;59.942;30.472;2023-04-24T00:43:39;13.30;94.90
29403;DHT22;16382;59.942;30.472;2023-04-24T00:46:06;13.30;94.90
29403;DHT22;16382;59.942;30.472;2023-04-24T00:48:34;13.30;95.30
29403;DHT22;16382;59.942;30.472;2023-04-24T00:51:02;13.30;95.40
29403;DHT22;16382;59.942;30.472;2023-04-24T00:53:29;13.30;95.90
29403;DHT22;16382;59.942;30.472;2023-04-24T00:55:57;13.30;95.90
29403;DHT22;16382;59.942;30.472;2023-04-24T00:58:26;13.20;96.10
29403;DHT22;16382;59.942;30.472;2023-04-24T01:00:55;13.20;96.40
29403;DHT22;16382;59.942;30.472;2023-04-24T01:03:28;13.10;96.70
29403;DHT22;16382;59.942;30.472;2023-04-24T01:05:57;13.10;97.20
29403;DHT22;16382;59.942;30.472;2023-04-24T01:08:26;13.10;97.60
29403;DHT22;16382;59.942;30.472;2023-04-24T01:10:57;13.10;97.90
29403;DHT22;16382;59.942;30.472;2023-04-24T01:13:26;13.10;97.90
29403;DHT22;16382;59.942;30.472;2023-04-24T01:15:54;13.10;98.20
29403;DHT22;16382;59.942;30.472;2023-04-24T01:18:21;13.20;98.30
29403;DHT22;16382;59.942;30.472;2023-04-24T01:20:51;13.20;98.40
29403;DHT22;16382;59.942;30.472;2023-04-24T01:23:22;13.10;98.60
29403;DHT22;16382;59.942;30.472;2023-04-24T01:25:51;13.20;98.90
29403;DHT22;16382;59.942;30.472;2023-04-24T01:28:19;13.20;99.10
29403;DHT22;16382;59.942;30.472;2023-04-24T01:30:47;13.20;99.10
29403;DHT22;16382;59.942;30.472;2023-04-24T01:33:14;13.20;99.10
29403;DHT22;16382;59.942;30.472;2023-04-24T01:35:42;13.10;99.40
29403;DHT22;16382;59.942;30.472;2023-04-24T01:38:10;13.10;99.90
29403;DHT22;16382;59.942;30.472;2023-04-24T01:40:39;13.10;99.90
29403;DHT22;16382;59.942;30.472;2023-04-24T01:43:06;13.20;99.90
29403;DHT22;16382;59.942;30.472;2023-04-24T01:45:34;13.20;99.90
29403;DHT22;16382;59.942;30.472;2023-04-24T01:48:04;13.20;99.90
29403;DHT22;16382;59.942;30.472;2023-04-24T01:50:31;13.20;99.90
29403;DHT22;16382;59.942;30.472;2023-04-24T01:52:59;13.30;99.90
29403;DHT22;16382;59.942;30.472;2023-04-24T01:55:26;13.30;99.90
29403;DHT22;16382;59.942;30.472;2023-04-24T01:57:56;13.30;99.90
29403;DHT22;16382;59.942;30.472;2023-04-24T02:00:24;13.30;99.90
29403;DHT22;16382;59.942;30.472;2023-04-24T02:02:53;13.30;99.90
29403;DHT22;16382;59.942;30.472;2023-04-24T02:05:21;13.40;99.90
29403;DHT22;16382;59.942;30.472;2023-04-24T02:07:48;13.40;99.90
29403;DHT22;16382;59.942;30.472;2023-04-24T02:10:16;13.50;99.90
29403;DHT22;16382;59.942;30.472;2023-04-24T02:12:46;13.50;99.90
29403;DHT22;16382;59.942;30.472;2023-04-24T02:15:17;13.60;99.90
29403;DHT22;16382;59.942;30.472;2023-04-24T02:17:45;13.50;99.90
29403;DHT22;16382;59.942;30.472;2023-04-24T02:20:13;13.50;99.90
29403;DHT22;16382;59.942;30.472;2023-04-24T02:22:41;13.50;99.90
29403;DHT22;16382;59.942;30.472;2023-04-24T02:25:08;13.50;99.90
29403;DHT22;16382;59.942;30.472;2023-04-24T02:27:36;13.40;99.90
29403;DHT22;16382;59.942;30.472;2023-04-24T02:30:06;13.40;99.90
29403;DHT22;16382;59.942;30.472;2023-04-24T02:32:36;13.30;99.90
29403;DHT22;16382;59.942;30.472;2023-04-24T02:35:05;13.30;99.90
29403;DHT22;16382;59.942;30.472;2023-04-24T02:37:33;13.30;99.90
29403;DHT22;16382;59.942;30.472;2023-04-24T02:40:01;13.20;99.90
29403;DHT22;16382;59.942;30.472;2023-04-24T02:42:30;13.20;99.90
29403;DHT22;16382;59.942;30.472;2023-04-24T02:44:58;13.20;99.90
29403;DHT22;16382;59.942;30.472;2023-04-24T02:47:26;13.20;99.90
29403;DHT22;16382;59.942;30.472;2023-04-24T02:49:55;13.10;99.90
29403;DHT22;16382;59.942;30.472;2023-04-24T02:52:22;13.10;99.90
29403;DHT22;16382;59.942;30.472;2023-04-24T02:54:50;13.20;99.90
29403;DHT22;16382;59.942;30.472;2023-04-24T02:57:17;13.20;99.90
29403;DHT22;16382;59.942;30.472;2023-04-24T02:59:45;13.10;99.90
29403;DHT22;16382;59.942;30.472;2023-04-24T03:02:12;13.10;99.90
29403;DHT22;16382;59.942;30.472;2023-04-24T03:04:40;13.10;99.90
29403;DHT22;16382;59.942;30.472;2023-04-24T03:07:11;13.10;99.90
29403;DHT22;16382;59.942;30.472;2023-04-24T03:09:39;13.20;99.90
29403;DHT22;16382;59.942;30.472;2023-04-24T03:12:07;13.20;99.90
29403;DHT22;16382;59.942;30.472;2023-04-24T03:14:35;13.30;99.90
29403;DHT22;16382;59.942;30.472;2023-04-24T03:17:03;13.30;99.90
29403;DHT22;16382;59.942;30.472;2023-04-24T03:19:31;13.40;99.90
29403;DHT22;16382;59.942;30.472;2023-04-24T03:22:04;13.50;99.90
29403;DHT22;16382;59.942;30.472;2023-04-24T03:24:34;13.60;99.90
29403;DHT22;16382;59.942;30.472;2023-04-24T03:27:02;13.60;99.90
29403;DHT22;16382;59.942;30.472;2023-04-24T03:29:48;13.70;99.90
29403;DHT22;16382;59.942;30.472;2023-04-24T03:32:21;13.80;99.90
29403;DHT22;16382;59.942;30.472;2023-04-24T03:34:49;13.90;99.90
29403;DHT22;16382;59.942;30.472;2023-04-24T03:37:17;13.90;99.90
29403;DHT22;16382;59.942;30.472;2023-04-24T03:39:55;14.00;99.90
29403;DHT22;16382;59.942;30.472;2023-04-24T03:42:24;14.00;99.90
29403;DHT22;16382;59.942;30.472;2023-04-24T03:44:55;14.10;99.90
29403;DHT22;16382;59.942;30.472;2023-04-24T03:47:30;14.10;99.90
29403;DHT22;16382;59.942;30.472;2023-04-24T03:50:01;14.10;99.90
29403;DHT22;16382;59.942;30.472;2023-04-24T03:52:30;14.10;99.90
29403;DHT22;16382;59.942;30.472;2023-04-24T03:54:59;14.10;99.70
29403;DHT22;16382;59.942;30.472;2023-04-24T03:57:30;14.20;99.50
29403;DHT22;16382;59.942;30.472;2023-04-24T04:00:07;14.30;99.00
29403;DHT22;16382;59.942;30.472;2023-04-24T04:02:41;14.30;99.00
29403;DHT22;16382;59.942;30.472;2023-04-24T04:05:09;14.30;98.70
29403;DHT22;16382;59.942;30.472;2023-04-24T04:07:39;14.30;98.60
29403;DHT22;16382;59.942;30.472;2023-04-24T04:10:10;14.40;98.60
29403;DHT22;16382;59.942;30.472;2023-04-24T04:12:38;14.40;98.30
29403;DHT22;16382;59.942;30.472;2023-04-24T04:15:08;14.40;98.10
29403;DHT22;16382;59.942;30.472;2023-04-24T04:17:37;14.40;98.10
29403;DHT22;16382;59.942;30.472;2023-04-24T04:20:08;14.40;98.10
29403;DHT22;16382;59.942;30.472;2023-04-24T04:22:38;14.50;97.90
29403;DHT22;16382;59.942;30.472;2023-04-24T04:25:10;14.60;97.70
29403;DHT22;16382;59.942;30.472;2023-04-24T04:27:39;14.70;97.10
29403;DHT22;16382;59.942;30.472;2023-04-24T04:30:10;14.70;96.80
29403;DHT22;16382;59.942;30.472;2023-04-24T04:32:54;14.80;96.50
29403;DHT22;16382;59.942;30.472;2023-04-24T04:35:30;14.80;96.40
29403;DHT22;16382;59.942;30.472;2023-04-24T04:37:58;14.80;96.40
29403;DHT22;16382;59.942;30.472;2023-04-24T04:40:56;14.80;95.90
29403;DHT22;16382;59.942;30.472;2023-04-24T04:43:27;14.90;95.70
29403;DHT22;16382;59.942;30.472;2023-04-24T04:46:11;15.00;95.30
29403;DHT22;16382;59.942;30.472;2023-04-24T04:48:59;15.00;94.90
29403;DHT22;16382;59.942;30.472;2023-04-24T04:51:27;15.00;94.70
29403;DHT22;16382;59.942;30.472;2023-04-24T04:53:55;15.00;95.30
29403;DHT22;16382;59.942;30.472;2023-04-24T04:56:25;15.00;94.60
29403;DHT22;16382;59.942;30.472;2023-04-24T04:58:54;15.10;94.40
29403;DHT22;16382;59.942;30.472;2023-04-24T05:01:22;15.10;94.20
29403;DHT22;16382;59.942;30.472;2023-04-24T05:03:50;15.10;94.40
29403;DHT22;16382;59.942;30.472;2023-04-24T05:06:17;15.10;94.30
29403;DHT22;16382;59.942;30.472;2023-04-24T05:08:46;15.10;94.50
29403;DHT22;16382;59.942;30.472;2023-04-24T05:11:29;15.10;94.10
29403;DHT22;16382;59.942;30.472;2023-04-24T05:13:57;15.10;94.30
29403;DHT22;16382;59.942;30.472;2023-04-24T05:16:33;15.10;94.30
29403;DHT22;16382;59.942;30.472;2023-04-24T05:19:04;15.20;94.40
29403;DHT22;16382;59.942;30.472;2023-04-24T05:21:39;15.30;93.80
29403;DHT22;16382;59.942;30.472;2023-04-24T05:24:08;15.30;94.30
29403;DHT22;16382;59.942;30.472;2023-04-24T05:26:57;15.50;93.70
29403;DHT22;16382;59.942;30.472;2023-04-24T05:29:33;15.70;93.00
29403;DHT22;16382;59.942;30.472;2023-04-24T05:32:01;16.10;92.60
29403;DHT22;16382;59.942;30.472;2023-04-24T05:34:30;16.60;91.60
29403;DHT22;16382;59.942;30.472;2023-04-24T05:36:58;17.20;90.60
29403;DHT22;16382;59.942;30.472;2023-04-24T05:39:26;17.80;87.30
29403;DHT22;16382;59.942;30.472;2023-04-24T05:41:54;18.30;83.80
29403;DHT22;16382;59.942;30.472;2023-04-24T05:44:25;18.80;81.70
29403;DHT22;16382;59.942;30.472;2023-04-24T05:46:53;19.10;79.10
29403;DHT22;16382;59.942;30.472;2023-04-24T05:49:22;19.60;75.60
29403;DHT22;16382;59.942;30.472;2023-04-24T05:51:50;20.00;73.40
29403;DHT22;16382;59.942;30.472;2023-04-24T05:54:17;20.20;71.70
29403;DHT22;16382;59.942;30.472;2023-04-24T05:56:45;20.50;70.30
29403;DHT22;16382;59.942;30.472;2023-04-24T05:59:19;20.70;68.70
29403;DHT22;16382;59.942;30.472;2023-04-24T06:01:49;21.00;67.60
29403;DHT22;16382;59.942;30.472;2023-04-24T06:04:20;21.40;66.60
29403;DHT22;16382;59.942;30.472;2023-04-24T06:06:47;21.90;64.30
29403;DHT22;16382;59.942;30.472;2023-04-24T06:09:17;22.10;62.40
29403;DHT22;16382;59.942;30.472;2023-04-24T06:11:45;22.20;61.90
29403;DHT22;16382;59.942;30.472;2023-04-24T06:14:14;22.50;60.30
29403;DHT22;16382;59.942;30.472;2023-04-24T06:17:16;22.70;59.10
29403;DHT22;16382;59.942;30.472;2023-04-24T06:19:48;22.70;59.10
29403;DHT22;16382;59.942;30.472;2023-04-24T06:22:16;23.00;58.90
29403;DHT22;16382;59.942;30.472;2023-04-24T06:24:44;23.40;57.20
29403;DHT22;16382;59.942;30.472;2023-04-24T06:27:11;23.40;57.60
29403;DHT22;16382;59.942;30.472;2023-04-24T06:32:09;23.80;55.40
29403;DHT22;16382;59.942;30.472;2023-04-24T06:34:38;24.10;55.50
29403;DHT22;16382;59.942;30.472;2023-04-24T06:37:06;24.30;55.40
29403;DHT22;16382;59.942;30.472;2023-04-24T06:39:33;24.60;54.60
29403;DHT22;16382;59.942;30.472;2023-04-24T06:42:01;24.90;53.20
29403;DHT22;16382;59.942;30.472;2023-04-24T06:44:33;24.80;53.70
29403;DHT22;16382;59.942;30.472;2023-04-24T06:47:08;25.10;53.00
29403;DHT22;16382;59.942;30.472;2023-04-24T06:49:36;25.50;52.60
29403;DHT22;16382;59.942;30.472;2023-04-24T06:52:05;25.50;51.60
29403;DHT22;16382;59.942;30.472;2023-04-24T06:54:33;25.40;52.20
29403;DHT22;16382;59.942;30.472;2023-04-24T06:57:01;25.60;51.20
29403;DHT22;16382;59.942;30.472;2023-04-24T06:59:29;25.70;51.30
29403;DHT22;16382;59.942;30.472;2023-04-24T07:01:57;26.10;50.70
29403;DHT22;16382;59.942;30.472;2023-04-24T07:04:25;26.30;50.00
29403;DHT22;16382;59.942;30.472;2023-04-24T07:06:54;26.40;49.90
29403;DHT22;16382;59.942;30.472;2023-04-24T07:09:24;26.50;49.50
29403;DHT22;16382;59.942;30.472;2023-04-24T07:11:53;26.50;49.60
29403;DHT22;16382;59.942;30.472;2023-04-24T07:14:22;26.70;49.30
29403;DHT22;16382;59.942;30.472;2023-04-24T07:16:50;27.00;48.60
29403;DHT22;16382;59.942;30.472;2023-04-24T07:19:17;27.30;48.30
29403;DHT22;16382;59.942;30.472;2023-04-24T07:21:45;27.30;48.00
29403;DHT22;16382;59.942;30.472;2023-04-24T07:24:17;27.50;47.80
29403;DHT22;16382;59.942;30.472;2023-04-24T07:26:44;27.90;47.40
29403;DHT22;16382;59.942;30.472;2023-04-24T07:29:13;28.20;46.60
29403;DHT22;16382;59.942;30.472;2023-04-24T07:31:40;28.20;46.40
29403;DHT22;16382;59.942;30.472;2023-04-24T07:34:08;28.00;45.70
29403;DHT22;16382;59.942;30.472;2023-04-24T07:36:36;27.70;46.50
29403;DHT22;16382;59.942;30.472;2023-04-24T07:39:05;27.90;46.40
29403;DHT22;16382;59.942;30.472;2023-04-24T07:41:34;28.10;46.00
29403;DHT22;16382;59.942;30.472;2023-04-24T07:44:02;28.60;44.90
29403;DHT22;16382;59.942;30.472;2023-04-24T07:46:30;28.50;44.40
29403;DHT22;16382;59.942;30.472;2023-04-24T07:48:58;28.50;44.10
29403;DHT22;16382;59.942;30.472;2023-04-24T07:51:27;28.10;44.40
29403;DHT22;16382;59.942;30.472;2023-04-24T07:53:55;27.90;44.50
29403;DHT22;16382;59.942;30.472;2023-04-24T07:56:22;27.80;44.40
29403;DHT22;16382;59.942;30.472;2023-04-24T07:58:51;27.60;44.80
29403;DHT22;16382;59.942;30.472;2023-04-24T08:01:19;27.80;44.80
29403;DHT22;16382;59.942;30.472;2023-04-24T08:03:46;27.80;44.50
29403;DHT22;16382;59.942;30.472;2023-04-24T08:06:14;27.80;44.60
29403;DHT22;16382;59.942;30.472;2023-04-24T08:08:41;28.10;44.60
29403;DHT22;16382;59.942;30.472;2023-04-24T08:11:09;28.30;43.70
29403;DHT22;16382;59.942;30.472;2023-04-24T08:13:36;28.20;43.10
29403;DHT22;16382;59.942;30.472;2023-04-24T08:16:05;28.00;43.60
29403;DHT22;16382;59.942;30.472;2023-04-24T08:18:32;28.30;42.90
29403;DHT22;16382;59.942;30.472;2023-04-24T08:21:02;28.40;42.50
29403;DHT22;16382;59.942;30.472;2023-04-24T08:23:29;28.40;42.70
29403;DHT22;16382;59.942;30.472;2023-04-24T08:25:57;28.70;42.50
29403;DHT22;16382;59.942;30.472;2023-04-24T08:28:25;29.10;42.00
29403;DHT22;16382;59.942;30.472;2023-04-24T08:30:53;29.00;41.60
29403;DHT22;16382;59.942;30.472;2023-04-24T08:33:23;28.50;41.80
29403;DHT22;16382;59.942;30.472;2023-04-24T08:35:50;28.50;41.90
29403;DHT22;16382;59.942;30.472;2023-04-24T08:38:18;28.70;42.00
29403;DHT22;16382;59.942;30.472;2023-04-24T08:40:47;29.00;41.30
29403;DHT22;16382;59.942;30.472;2023-04-24T08:43:15;29.00;41.50
29403;DHT22;16382;59.942;30.472;2023-04-24T08:45:45;29.40;41.60
29403;DHT22;16382;59.942;30.472;2023-04-24T08:48:13;29.60;40.30
29403;DHT22;16382;59.942;30.472;2023-04-24T08:50:43;29.60;40.80
29403;DHT22;16382;59.942;30.472;2023-04-24T08:53:11;29.40;41.00
29403;DHT22;16382;59.942;30.472;2023-04-24T08:55:39;29.90;40.50
29403;DHT22;16382;59.942;30.472;2023-04-24T08:58:08;30.40;39.80
29403;DHT22;16382;59.942;30.472;2023-04-24T09:00:36;30.40;39.80
29403;DHT22;16382;59.942;30.472;2023-04-24T09:03:06;30.20;39.80
29403;DHT22;16382;59.942;30.472;2023-04-24T09:05:33;30.20;39.60
29403;DHT22;16382;59.942;30.472;2023-04-24T09:08:04;30.50;39.20
29403;DHT22;16382;59.942;30.472;2023-04-24T09:10:39;30.80;38.50
29403;DHT22;16382;59.942;30.472;2023-04-24T09:13:07;30.20;38.60
29403;DHT22;16382;59.942;30.472;2023-04-24T09:15:36;29.90;39.30
29403;DHT22;16382;59.942;30.472;2023-04-24T09:18:05;30.30;39.80
29403;DHT22;16382;59.942;30.472;2023-04-24T09:20:33;31.30;38.10
29403;DHT22;16382;59.942;30.472;2023-04-24T09:23:03;31.20;38.20
29403;DHT22;16382;59.942;30.472;2023-04-24T09:25:34;31.00;38.20
29403;DHT22;16382;59.942;30.472;2023-04-24T09:29:41;30.60;38.90
29403;DHT22;16382;59.942;30.472;2023-04-24T09:31:45;30.70;38.80
29403;DHT22;16382;59.942;30.472;2023-04-24T09:34:13;30.70;38.80
29403;DHT22;16382;59.942;30.472;2023-04-24T09:36:42;31.10;39.10
29403;DHT22;16382;59.942;30.472;2023-04-24T09:39:12;31.80;38.20
29403;DHT22;16382;59.942;30.472;2023-04-24T09:41:48;32.00;38.60
29403;DHT22;16382;59.942;30.472;2023-04-24T09:44:18;32.00;37.90
29403;DHT22;16382;59.942;30.472;2023-04-24T09:46:50;31.90;37.70
29403;DHT22;16382;59.942;30.472;2023-04-24T09:49:23;31.40;38.00
29403;DHT22;16382;59.942;30.472;2023-04-24T09:52:01;31.30;38.30
29403;DHT22;16382;59.942;30.472;2023-04-24T09:54:32;31.20;38.30
29403;DHT22;16382;59.942;30.472;2023-04-24T09:57:06;31.40;38.80
29403;DHT22;16382;59.942;30.472;2023-04-24T09:59:42;31.80;38.50
29403;DHT22;16382;59.942;30.472;2023-04-24T10:02:17;32.30;37.80
29403;DHT22;16382;59.942;30.472;2023-04-24T10:04:54;32.50;37.80
29403;DHT22;16382;59.942;30.472;2023-04-24T10:07:25;32.70;37.30
29403;DHT22;16382;59.942;30.472;2023-04-24T10:09:54;32.60;37.00
29403;DHT22;16382;59.942;30.472;2023-04-24T10:12:23;32.10;37.40
29403;DHT22;16382;59.942;30.472;2023-04-24T10:14:51;32.00;38.10
29403;DHT22;16382;59.942;30.472;2023-04-24T10:17:20;31.70;37.70
29403;DHT22;16382;59.942;30.472;2023-04-24T10:19:48;31.60;37.80
29403;DHT22;16382;59.942;30.472;2023-04-24T10:22:17;30.50;39.10
29403;DHT22;16382;59.942;30.472;2023-04-24T10:24:45;30.40;39.60
29403;DHT22;16382;59.942;30.472;2023-04-24T10:27:16;30.00;38.80
29403;DHT22;16382;59.942;30.472;2023-04-24T10:29:45;28.60;39.90
29403;DHT22;16382;59.942;30.472;2023-04-24T10:32:14;28.00;40.90
29403;DHT22;16382;59.942;30.472;2023-04-24T10:34:42;27.30;42.00
29403;DHT22;16382;59.942;30.472;2023-04-24T10:37:10;26.80;42.40
29403;DHT22;16382;59.942;30.472;2023-04-24T10:39:39;26.40;43.20
29403;DHT22;16382;59.942;30.472;2023-04-24T10:42:15;26.00;43.30
29403;DHT22;16382;59.942;30.472;2023-04-24T10:44:43;26.10;44.20
29403;DHT22;16382;59.942;30.472;2023-04-24T10:47:14;26.80;43.30
29403;DHT22;16382;59.942;30.472;2023-04-24T10:49:42;27.10;42.40
29403;DHT22;16382;59.942;30.472;2023-04-24T10:52:11;26.50;43.10
29403;DHT22;16382;59.942;30.472;2023-04-24T10:54:45;25.90;43.80
29403;DHT22;16382;59.942;30.472;2023-04-24T10:57:28;25.50;44.40
29403;DHT22;16382;59.942;30.472;2023-04-24T11:00:14;25.80;44.50
29403;DHT22;16382;59.942;30.472;2023-04-24T11:02:46;25.40;44.40
29403;DHT22;16382;59.942;30.472;2023-04-24T11:05:19;25.00;45.00
29403;DHT22;16382;59.942;30.472;2023-04-24T11:08:13;24.70;45.60
29403;DHT22;16382;59.942;30.472;2023-04-24T11:11:02;24.70;45.90
29403;DHT22;16382;59.942;30.472;2023-04-24T11:14:04;24.60;45.70
29403;DHT22;16382;59.942;30.472;2023-04-24T11:16:35;24.40;46.60
29403;DHT22;16382;59.942;30.472;2023-04-24T11:19:07;24.50;46.60
29403;DHT22;16382;59.942;30.472;2023-04-24T11:21:43;25.50;45.70
29403;DHT22;16382;59.942;30.472;2023-04-24T11:24:48;27.30;44.20
29403;DHT22;16382;59.942;30.472;2023-04-24T11:27:23;29.60;41.00
29403;DHT22;16382;59.942;30.472;2023-04-24T11:30:01;30.30;40.10
29403;DHT22;16382;59.942;30.472;2023-04-24T11:32:36;30.40;39.70
29403;DHT22;16382;59.942;30.472;2023-04-24T11:35:08;29.30;40.60
29403;DHT22;16382;59.942;30.472;2023-04-24T11:37:39;27.70;41.70
29403;DHT22;16382;59.942;30.472;2023-04-24T11:40:09;26.50;43.20
29403;DHT22;16382;59.942;30.472;2023-04-24T11:42:38;25.70;44.30
29403;DHT22;16382;59.942;30.472;2023-04-24T11:45:10;25.10;45.10
29403;DHT22;16382;59.942;30.472;2023-04-24T11:47:40;24.50;45.80
29403;DHT22;16382;59.942;30.472;2023-04-24T11:50:10;24.10;46.70
29403;DHT22;16382;59.942;30.472;2023-04-24T11:52:40;23.90;47.10
29403;DHT22;16382;59.942;30.472;2023-04-24T11:55:23;23.80;47.20
29403;DHT22;16382;59.942;30.472;2023-04-24T11:57:54;23.60;47.50
29403;DHT22;16382;59.942;30.472;2023-04-24T12:00:26;23.40;47.90
29403;DHT22;16382;59.942;30.472;2023-04-24T12:03:04;23.20;48.20
29403;DHT22;16382;59.942;30.472;2023-04-24T12:05:33;22.90;48.50
29403;DHT22;16382;59.942;30.472;2023-04-24T12:08:01;22.80;49.50
29403;DHT22;16382;59.942;30.472;2023-04-24T12:10:30;22.70;50.60
29403;DHT22;16382;59.942;30.472;2023-04-24T12:12:59;22.60;51.30
29403;DHT22;16382;59.942;30.472;2023-04-24T12:15:28;22.40;51.70
29403;DHT22;16382;59.942;30.472;2023-04-24T12:17:57;22.50;52.50
29403;DHT22;16382;59.942;30.472;2023-04-24T12:20:26;22.50;53.00
29403;DHT22;16382;59.942;30.472;2023-04-24T12:22:56;22.40;53.00
29403;DHT22;16382;59.942;30.472;2023-04-24T12:25:26;22.40;53.10
29403;DHT22;16382;59.942;30.472;2023-04-24T12:28:08;22.30;53.40
29403;DHT22;16382;59.942;30.472;2023-04-24T12:30:41;22.30;53.50
29403;DHT22;16382;59.942;30.472;2023-04-24T12:33:10;22.30;53.70
29403;DHT22;16382;59.942;30.472;2023-04-24T12:35:40;22.20;54.00
29403;DHT22;16382;59.942;30.472;2023-04-24T12:38:09;22.10;53.80
29403;DHT22;16382;59.942;30.472;2023-04-24T12:40:38;22.00;54.10
29403;DHT22;16382;59.942;30.472;2023-04-24T12:43:15;21.90;54.50
29403;DHT22;16382;59.942;30.472;2023-04-24T12:45:45;21.80;54.30
29403;DHT22;16382;59.942;30.472;2023-04-24T12:48:12;21.60;54.70
29403;DHT22;16382;59.942;30.472;2023-04-24T12:50:41;21.50;55.10
29403;DHT22;16382;59.942;30.472;2023-04-24T12:53:08;21.50;55.50
29403;DHT22;16382;59.942;30.472;2023-04-24T12:55:38;21.40;55.40
29403;DHT22;16382;59.942;30.472;2023-04-24T12:58:06;21.40;55.80
29403;DHT22;16382;59.942;30.472;2023-04-24T13:00:33;21.40;55.90
29403;DHT22;16382;59.942;30.472;2023-04-24T13:03:03;21.30;56.20
29403;DHT22;16382;59.942;30.472;2023-04-24T13:05:31;21.10;56.40
29403;DHT22;16382;59.942;30.472;2023-04-24T13:07:59;21.10;56.70
29403;DHT22;16382;59.942;30.472;2023-04-24T13:10:26;21.10;56.80
29403;DHT22;16382;59.942;30.472;2023-04-24T13:12:54;21.20;56.90
29403;DHT22;16382;59.942;30.472;2023-04-24T13:15:22;21.40;56.70
29403;DHT22;16382;59.942;30.472;2023-04-24T13:17:51;21.50;56.60
29403;DHT22;16382;59.942;30.472;2023-04-24T13:20:20;21.60;56.20
29403;DHT22;16382;59.942;30.472;2023-04-24T13:22:47;21.60;56.30
29403;DHT22;16382;59.942;30.472;2023-04-24T13:25:15;21.60;56.10
29403;DHT22;16382;59.942;30.472;2023-04-24T13:27:44;21.50;56.30
29403;DHT22;16382;59.942;30.472;2023-04-24T13:30:12;21.80;57.10
29403;DHT22;16382;59.942;30.472;2023-04-24T13:32:40;22.70;55.10
29403;DHT22;16382;59.942;30.472;2023-04-24T13:35:08;22.90;54.40
29403;DHT22;16382;59.942;30.472;2023-04-24T13:37:37;22.80;54.50
29403;DHT22;16382;59.942;30.472;2023-04-24T13:40:06;22.70;54.70
29403;DHT22;16382;59.942;30.472;2023-04-24T13:42:34;22.40;55.10
29403;DHT22;16382;59.942;30.472;2023-04-24T13:45:03;22.20;55.40
29403;DHT22;16382;59.942;30.472;2023-04-24T13:47:32;21.90;56.20
29403;DHT22;16382;59.942;30.472;2023-04-24T13:50:10;21.60;56.50
29403;DHT22;16382;59.942;30.472;2023-04-24T13:52:39;21.30;57.00
29403;DHT22;16382;59.942;30.472;2023-04-24T13:55:10;21.00;57.90
29403;DHT22;16382;59.942;30.472;2023-04-24T13:57:40;20.70;58.90
29403;DHT22;16382;59.942;30.472;2023-04-24T14:00:09;20.40;59.80
29403;DHT22;16382;59.942;30.472;2023-04-24T14:02:37;20.20;60.50
29403;DHT22;16382;59.942;30.472;2023-04-24T14:05:05;20.00;61.30
29403;DHT22;16382;59.942;30.472;2023-04-24T14:07:33;19.80;61.70
29403;DHT22;16382;59.942;30.472;2023-04-24T14:10:06;19.50;62.90
29403;DHT22;16382;59.942;30.472;2023-04-24T14:12:41;19.50;63.30
29403;DHT22;16382;59.942;30.472;2023-04-24T14:15:26;19.40;63.80
29403;DHT22;16382;59.942;30.472;2023-04-24T14:17:58;19.30;64.10
29403;DHT22;16382;59.942;30.472;2023-04-24T14:20:27;19.20;64.70
29403;DHT22;16382;59.942;30.472;2023-04-24T14:23:00;19.00;65.20
29403;DHT22;16382;59.942;30.472;2023-04-24T14:25:32;18.90;66.10
29403;DHT22;16382;59.942;30.472;2023-04-24T14:28:01;18.80;66.50
29403;DHT22;16382;59.942;30.472;2023-04-24T14:30:31;18.60;67.30
29403;DHT22;16382;59.942;30.472;2023-04-24T14:32:58;18.50;68.00
29403;DHT22;16382;59.942;30.472;2023-04-24T14:35:26;18.40;68.70
29403;DHT22;16382;59.942;30.472;2023-04-24T14:37:54;18.30;70.60
29403;DHT22;16382;59.942;30.472;2023-04-24T14:40:22;18.20;70.40
29403;DHT22;16382;59.942;30.472;2023-04-24T14:42:51;18.00;71.60
29403;DHT22;16382;59.942;30.472;2023-04-24T14:45:19;17.90;72.50
29403;DHT22;16382;59.942;30.472;2023-04-24T14:47:46;17.80;73.20
29403;DHT22;16382;59.942;30.472;2023-04-24T14:50:15;17.70;74.20
29403;DHT22;16382;59.942;30.472;2023-04-24T14:52:57;17.60;75.40
29403;DHT22;16382;59.942;30.472;2023-04-24T14:55:55;17.50;75.90
29403;DHT22;16382;59.942;30.472;2023-04-24T14:58:27;17.40;77.00
29403;DHT22;16382;59.942;30.472;2023-04-24T15:00:55;17.20;78.20
29403;DHT22;16382;59.942;30.472;2023-04-24T15:03:25;17.10;78.90
29403;DHT22;16382;59.942;30.472;2023-04-24T15:05:53;17.00;80.10
29403;DHT22;16382;59.942;30.472;2023-04-24T15:08:29;16.90;81.00
29403;DHT22;16382;59.942;30.472;2023-04-24T15:11:07;16.80;82.30
29403;DHT22;16382;59.942;30.472;2023-04-24T15:13:37;16.80;83.40
29403;DHT22;16382;59.942;30.472;2023-04-24T15:16:05;16.70;84.20
29403;DHT22;16382;59.942;30.472;2023-04-24T15:18:33;16.70;85.80
29403;DHT22;16382;59.942;30.472;2023-04-24T15:21:09;16.50;87.60
29403;DHT22;16382;59.942;30.472;2023-04-24T15:23:38;16.40;89.90
29403;DHT22;16382;59.942;30.472;2023-04-24T15:26:05;16.30;91.80
29403;DHT22;16382;59.942;30.472;2023-04-24T15:28:33;16.20;95.10
29403;DHT22;16382;59.942;30.472;2023-04-24T15:31:02;16.00;99.90
29403;DHT22;16382;59.942;30.472;2023-04-24T15:33:30;15.90;99.90
29403;DHT22;16382;59.942;30.472;2023-04-24T15:36:01;15.80;99.90
29403;DHT22;16382;59.942;30.472;2023-04-24T15:38:29;15.70;99.90